Time;durP1;ratioP1;P1;durP2;ratioP2;P2;SDS_P1;SDS_P2;PMS_P1;PMS_P2;Temp;Humidity;BMP_temperature;BMP_pressure;BME280_temperature;BME280_humidity;BME280_pressure;Samples;Min_cycle;Max_cycle;Signal;HPM_P1;HPM_P2
2023/09/17 00:02:02;;;;;;;9.30;4.30;;;;;;;24.72;66.03;100583.09;5041336;28;20530;-61
2023/09/17 00:04:29;;;;;;;10.00;4.20;;;;;;;24.69;66.21;100586.72;5071372;28;20048;-59
2023/09/17 00:06:56;;;;;;;5.68;3.97;;;;;;;24.68;66.23;100587.09;5049726;28;20613;-60
2023/09/17 00:09:24;;;;;;;10.40;4.68;;;;;;;24.63;66.56;100582.72;5060168;28;20169;-61
2023/09/17 00:11:51;;;;;;;9.00;4.25;;;;;;;24.38;66.97;100580.03;5055737;28;20684;-61
2023/09/17 00:14:19;;;;;;;7.55;4.20;;;;;;;24.58;66.38;100585.16;5031449;28;20073;-61
2023/09/17 00:16:46;;;;;;;9.43;4.43;;;;;;;24.57;66.64;100583.53;5050956;28;20041;-60
2023/09/17 00:19:14;;;;;;;10.70;4.40;;;;;;;24.38;67.31;100582.03;5035899;28;20057;-61
2023/09/17 00:21:42;;;;;;;6.28;4.00;;;;;;;24.42;67.18;100586.47;5034552;28;20048;-60
2023/09/17 00:24:09;;;;;;;8.02;4.80;;;;;;;24.51;66.94;100574.75;5030925;28;20061;-60
2023/09/17 00:26:36;;;;;;;7.85;4.28;;;;;;;24.44;67.53;100583.22;5052348;28;20053;-61
2023/09/17 00:29:04;;;;;;;7.43;4.28;;;;;;;24.41;67.76;100570.75;5055315;28;20057;-60
2023/09/17 00:31:31;;;;;;;9.63;4.57;;;;;;;24.38;67.42;100576.41;5048980;28;20120;-61
2023/09/17 00:33:58;;;;;;;7.40;4.05;;;;;;;24.51;67.21;100572.72;5070474;28;20059;-59
2023/09/17 00:36:26;;;;;;;9.30;4.50;;;;;;;24.54;67.51;100585.19;5054915;28;20060;-60
2023/09/17 00:38:53;;;;;;;6.55;4.22;;;;;;;24.48;67.87;100582.00;5049643;28;20052;-60
2023/09/17 00:41:21;;;;;;;9.52;4.22;;;;;;;24.58;67.31;100582.34;5049818;28;20048;-61
2023/09/17 00:43:48;;;;;;;7.30;4.32;;;;;;;24.59;66.82;100573.47;5049875;28;20056;-60
2023/09/17 00:46:16;;;;;;;8.30;5.03;;;;;;;24.40;67.48;100574.81;5041690;28;20050;-60
2023/09/17 00:48:44;;;;;;;9.50;4.50;;;;;;;24.37;67.97;100575.59;5033247;28;20675;-60
2023/09/17 00:51:12;;;;;;;6.75;4.00;;;;;;;24.32;67.68;100575.25;5043997;28;20045;-60
2023/09/17 00:53:40;;;;;;;11.25;4.43;;;;;;;24.18;68.34;100567.66;5035718;28;20053;-60
2023/09/17 00:56:08;;;;;;;10.05;4.50;;;;;;;24.34;67.62;100576.44;5061243;28;20056;-61
2023/09/17 00:58:36;;;;;;;11.75;4.22;;;;;;;24.30;67.86;100572.81;5053627;28;20048;-61
2023/09/17 01:01:07;;;;;;;9.68;4.30;;;;;;;24.41;67.73;100584.84;5063638;28;20052;-61
2023/09/17 01:03:36;;;;;;;9.85;5.00;;;;;;;24.43;67.42;100581.59;5054570;28;20057;-60
2023/09/17 01:06:04;;;;;;;8.82;4.60;;;;;;;24.30;67.58;100583.31;5035922;28;20052;-60
2023/09/17 01:08:32;;;;;;;8.50;4.70;;;;;;;24.45;67.42;100585.63;5065812;28;20057;-61
2023/09/17 01:11:01;;;;;;;11.30;4.13;;;;;;;24.33;67.92;100583.28;5052312;28;20072;-60
2023/09/17 01:13:29;;;;;;;7.82;4.60;;;;;;;24.28;68.17;100577.28;5035737;28;20513;-61
2023/09/17 01:15:59;;;;;;;10.85;4.63;;;;;;;24.40;67.41;100579.63;5053908;28;20553;-60
2023/09/17 01:18:27;;;;;;;9.95;4.28;;;;;;;24.36;67.56;100576.81;5054239;28;20080;-60
2023/09/17 01:21:00;;;;;;;9.77;4.60;;;;;;;24.21;68.15;100569.66;5052606;28;20044;-61
2023/09/17 01:23:40;;;;;;;7.78;4.20;;;;;;;24.21;68.32;100568.84;5050871;28;20053;-60
2023/09/17 01:26:16;;;;;;;7.28;3.88;;;;;;;24.13;68.38;100573.72;5054864;28;20052;-62
2023/09/17 01:28:44;;;;;;;8.85;4.10;;;;;;;24.15;68.72;100573.28;5054859;28;20053;-61
2023/09/17 01:31:12;;;;;;;7.65;4.15;;;;;;;24.05;68.94;100576.97;5042159;28;20045;-60
2023/09/17 01:33:39;;;;;;;9.68;4.70;;;;;;;24.06;68.77;100570.91;5046600;28;20582;-61
2023/09/17 01:36:14;;;;;;;9.35;4.03;;;;;;;24.25;68.50;100578.88;5038618;28;20049;-61
2023/09/17 01:38:47;;;;;;;12.18;4.10;;;;;;;24.37;67.84;100577.63;5051500;28;20076;-61
2023/09/17 01:41:16;;;;;;;8.25;4.78;;;;;;;24.33;68.18;100572.03;5052743;28;20053;-61
2023/09/17 01:43:44;;;;;;;11.90;4.30;;;;;;;24.36;67.85;100574.00;5068127;28;20706;-61
2023/09/17 01:46:16;;;;;;;;;;;;;;;24.30;67.95;100574.84;5049523;28;20076;-59
2023/09/17 01:48:45;;;;;;;8.63;4.32;;;;;;;24.29;67.84;100568.41;5031512;28;19925;-59
2023/09/17 01:51:13;;;;;;;8.55;4.30;;;;;;;24.23;68.25;100575.66;5063349;28;20041;-61
2023/09/17 01:53:41;;;;;;;11.73;4.38;;;;;;;24.22;68.73;100571.25;5053798;28;20045;-61
2023/09/17 01:56:11;;;;;;;8.00;4.30;;;;;;;24.12;69.17;100576.94;5061992;28;20063;-60
2023/09/17 01:58:38;;;;;;;9.05;4.45;;;;;;;24.18;68.70;100573.28;5070107;28;20053;-61
2023/09/17 02:01:06;;;;;;;10.23;4.55;;;;;;;24.03;69.27;100574.56;5063723;28;20683;-61
2023/09/17 02:03:34;;;;;;;8.35;4.43;;;;;;;23.99;69.34;100573.75;5060540;28;20052;-60
2023/09/17 02:06:04;;;;;;;7.47;3.97;;;;;;;24.18;69.21;100580.94;5060923;28;20048;-61
2023/09/17 02:08:31;;;;;;;7.55;3.83;;;;;;;24.17;68.97;100568.06;5053257;28;20053;-61
2023/09/17 02:10:59;;;;;;;8.80;4.32;;;;;;;23.96;68.82;100560.47;5053365;28;20057;-61
2023/09/17 02:13:26;;;;;;;8.95;4.32;;;;;;;24.03;69.85;100563.31;5037145;28;20084;-60
2023/09/17 02:15:53;;;;;;;8.48;4.20;;;;;;;24.13;69.31;100564.47;5044051;28;20058;-62
2023/09/17 02:18:21;;;;;;;8.93;4.05;;;;;;;24.16;69.00;100558.84;5052526;28;20057;-62
2023/09/17 02:20:48;;;;;;;6.10;4.05;;;;;;;24.22;68.71;100557.19;5053274;28;20060;-64
2023/09/17 02:23:17;;;;;;;7.20;3.92;;;;;;;24.14;69.22;100557.63;5067387;28;20053;-59
2023/09/17 02:25:45;;;;;;;12.43;4.65;;;;;;;24.19;69.07;100549.56;5056409;28;20048;-61
2023/09/17 02:28:13;;;;;;;9.57;4.18;;;;;;;23.88;69.94;100550.47;5072629;28;20044;-60
2023/09/17 02:30:40;;;;;;;8.02;3.65;;;;;;;23.98;69.71;100546.81;5065183;28;20057;-61
2023/09/17 02:33:10;;;;;;;10.32;3.78;;;;;;;24.04;69.29;100547.22;5070152;28;20060;-60
2023/09/17 02:35:38;;;;;;;9.18;4.28;;;;;;;23.96;69.24;100548.41;5066682;28;20053;-60
2023/09/17 02:38:05;;;;;;;7.78;3.88;;;;;;;23.62;70.47;100541.72;5052790;28;20053;-60
2023/09/17 02:40:33;;;;;;;11.45;4.32;;;;;;;23.81;70.28;100547.69;5057662;28;20052;-60
2023/09/17 02:43:01;;;;;;;7.10;4.15;;;;;;;23.80;70.32;100542.47;5069859;28;20047;-60
2023/09/17 02:45:29;;;;;;;7.35;3.85;;;;;;;23.95;69.44;100544.81;5037991;28;20061;-61
2023/09/17 02:47:56;;;;;;;11.13;4.10;;;;;;;23.68;70.10;100551.31;5050826;28;20049;-60
2023/09/17 02:50:24;;;;;;;10.43;4.40;;;;;;;23.83;70.28;100550.91;5051026;28;20052;-60
2023/09/17 02:52:51;;;;;;;13.15;4.20;;;;;;;23.83;70.13;100555.72;5050696;28;20550;-60
2023/09/17 02:55:19;;;;;;;7.05;3.90;;;;;;;23.89;70.21;100548.44;5053192;28;20045;-61
2023/09/17 02:57:48;;;;;;;7.80;4.00;;;;;;;23.86;70.17;100552.88;5072191;28;20052;-61
2023/09/17 03:00:17;;;;;;;7.95;4.18;;;;;;;23.85;69.79;100550.50;5051491;28;20067;-60
2023/09/17 03:02:47;;;;;;;7.18;3.83;;;;;;;23.80;70.04;100548.09;5061604;28;20514;-60
2023/09/17 03:05:15;;;;;;;8.73;3.92;;;;;;;23.79;70.01;100538.84;5058388;28;20056;-60
2023/09/17 03:07:43;;;;;;;6.43;3.83;;;;;;;23.74;70.62;100539.25;5050464;28;20060;-59
2023/09/17 03:10:11;;;;;;;7.85;4.07;;;;;;;23.73;70.27;100540.47;5048339;28;20057;-59
2023/09/17 03:12:41;;;;;;;8.10;3.90;;;;;;;23.67;70.73;100542.09;5067309;28;20415;-60
2023/09/17 03:15:09;;;;;;;8.70;4.03;;;;;;;23.83;70.32;100536.84;5049815;28;20056;-61
2023/09/17 03:17:37;;;;;;;10.98;4.07;;;;;;;23.92;69.68;100542.03;5033747;28;20056;-60
2023/09/17 03:20:13;;;;;;;12.20;3.75;;;;;;;23.60;70.47;100533.69;5060397;28;20060;-61
2023/09/17 03:22:40;;;;;;;12.27;3.90;;;;;;;23.56;71.07;100527.25;5052313;28;20048;-61
2023/09/17 03:25:08;;;;;;;7.97;3.85;;;;;;;23.54;71.46;100531.69;5055237;28;20051;-61
2023/09/17 03:27:35;;;;;;;6.88;4.00;;;;;;;23.72;70.63;100533.25;5042278;28;20045;-61
2023/09/17 03:30:05;;;;;;;9.73;4.53;;;;;;;23.58;71.17;100538.09;5055679;28;20076;-61
2023/09/17 03:32:33;;;;;;;;;;;;;;;23.71;70.58;100536.47;5041845;28;20037;-60
2023/09/17 03:35:01;;;;;;;6.65;4.00;;;;;;;23.75;70.39;100534.41;5047920;28;19925;-60
2023/09/17 03:37:30;;;;;;;11.95;3.30;;;;;;;23.84;69.88;100527.16;5029563;28;20060;-60
2023/09/17 03:40:07;;;;;;;7.72;3.63;;;;;;;23.66;70.34;100528.44;5034553;28;20053;-60
2023/09/17 03:42:40;;;;;;;7.38;3.60;;;;;;;23.64;71.05;100522.41;5016505;28;20045;-60
2023/09/17 03:45:12;;;;;;;6.45;3.28;;;;;;;23.67;71.02;100524.41;5051919;28;20053;-60
2023/09/17 03:47:42;;;;;;;7.70;3.63;;;;;;;23.64;70.84;100525.22;5050165;28;20067;-59
2023/09/17 03:50:13;;;;;;;6.43;3.65;;;;;;;23.70;70.82;100530.03;5050185;28;20056;-60
2023/09/17 03:52:43;;;;;;;10.95;3.92;;;;;;;23.50;71.01;100526.06;5066985;28;20049;-60
2023/09/17 03:55:11;;;;;;;6.50;3.72;;;;;;;23.48;71.97;100527.69;5054664;28;20059;-61
2023/09/17 03:57:39;;;;;;;8.13;3.78;;;;;;;23.73;70.88;100529.22;5031268;28;20049;-60
2023/09/17 04:00:13;;;;;;;6.32;3.80;;;;;;;23.76;70.67;100525.59;5041820;28;20092;-60
2023/09/17 04:02:43;;;;;;;6.00;3.65;;;;;;;23.69;70.90;100534.06;5059615;28;20059;-60
2023/09/17 04:05:12;;;;;;;5.72;3.67;;;;;;;23.69;70.90;100536.06;5057508;28;20061;-60
2023/09/17 04:07:42;;;;;;;5.88;3.58;;;;;;;23.78;70.77;100528.00;5051565;28;20071;-61
2023/09/17 04:10:12;;;;;;;8.27;3.88;;;;;;;23.71;70.88;100530.84;5063503;28;20427;-60
2023/09/17 04:12:40;;;;;;;6.80;3.50;;;;;;;23.55;71.63;100533.28;5050439;28;20064;-61
2023/09/17 04:15:16;;;;;;;5.07;3.45;;;;;;;23.56;71.70;100529.25;5043882;28;20054;-61
2023/09/17 04:17:45;;;;;;;7.00;3.65;;;;;;;23.65;71.32;100519.19;5031392;28;20076;-61
2023/09/17 04:20:14;;;;;;;8.50;3.47;;;;;;;23.69;71.16;100525.63;5037224;28;20049;-61
2023/09/17 04:22:42;;;;;;;6.25;3.50;;;;;;;23.65;71.29;100529.63;5055573;28;20083;-61
2023/09/17 04:25:10;;;;;;;7.40;3.63;;;;;;;23.76;70.92;100533.22;5052884;28;20049;-60
2023/09/17 04:27:41;;;;;;;4.03;3.00;;;;;;;23.66;70.68;100534.84;5053826;28;20056;-60
2023/09/17 04:30:13;;;;;;;6.65;3.80;;;;;;;23.52;71.28;100532.06;5063139;28;20056;-60
2023/09/17 04:32:42;;;;;;;5.97;3.70;;;;;;;23.74;70.97;100527.19;5062946;28;20056;-59
2023/09/17 04:35:11;;;;;;;7.03;3.72;;;;;;;23.71;70.54;100519.59;5054114;28;20044;-60
2023/09/17 04:37:40;;;;;;;6.97;3.92;;;;;;;23.70;71.03;100521.59;5053764;28;20468;-60
2023/09/17 04:40:09;;;;;;;6.10;3.53;;;;;;;23.67;70.71;100528.03;5053596;28;20364;-60
2023/09/17 04:42:39;;;;;;;10.52;3.85;;;;;;;23.65;71.54;100526.81;5052766;28;20072;-61
2023/09/17 04:45:08;;;;;;;;;;;;;;;23.68;71.12;100520.38;5069966;28;20084;-60
2023/09/17 04:47:38;;;;;;;;;;;;;;;23.37;71.72;100522.06;5039397;28;19928;-60
2023/09/17 04:50:12;;;;;;;8.15;3.67;;;;;;;23.56;71.37;100518.81;5052370;28;19932;-60
2023/09/17 04:52:40;;;;;;;8.88;3.95;;;;;;;23.63;71.57;100520.78;5038894;28;20052;-60
2023/09/17 04:55:07;;;;;;;5.80;3.53;;;;;;;23.70;70.80;100523.59;5052536;28;20056;-60
2023/09/17 04:57:35;;;;;;;6.00;3.60;;;;;;;23.73;71.34;100528.44;5051539;28;20403;-60
2023/09/17 05:00:10;;;;;;;6.60;3.40;;;;;;;23.82;70.56;100525.97;5055019;28;20065;-60
2023/09/17 05:02:39;;;;;;;7.18;3.47;;;;;;;23.71;71.29;100526.00;5079606;28;20158;-60
2023/09/17 05:05:10;;;;;;;6.23;3.27;;;;;;;23.73;71.06;100525.63;5073200;28;20049;-60
2023/09/17 05:07:38;;;;;;;;;;;;;;;23.69;71.12;100527.63;5073337;28;20569;-60
2023/09/17 05:10:07;;;;;;;6.50;3.25;;;;;;;23.62;71.37;100524.84;5088933;28;20027;-61
2023/09/17 05:12:36;;;;;;;8.13;3.50;;;;;;;23.63;71.53;100527.25;5075464;28;20037;-61
2023/09/17 05:15:04;;;;;;;6.45;3.40;;;;;;;23.52;71.31;100532.06;5052430;28;20063;-61
2023/09/17 05:17:32;;;;;;;6.18;3.38;;;;;;;23.48;71.88;100534.13;5052550;28;20049;-60
2023/09/17 05:20:00;;;;;;;7.22;3.10;;;;;;;23.39;71.81;100540.16;5051800;28;20049;-60
2023/09/17 05:22:27;;;;;;;9.88;3.60;;;;;;;23.38;71.92;100534.91;5044615;28;20044;-61
2023/09/17 05:24:55;;;;;;;5.47;3.65;;;;;;;23.36;72.13;100535.31;5046378;28;20056;-60
2023/09/17 05:27:22;;;;;;;9.48;3.35;;;;;;;23.12;73.00;100535.31;5049410;28;20060;-61
2023/09/17 05:29:50;;;;;;;5.60;3.67;;;;;;;23.35;72.91;100535.72;5053508;28;20060;-61
2023/09/17 05:32:18;;;;;;;6.07;3.80;;;;;;;23.52;71.98;100529.25;5059166;28;20053;-61
2023/09/17 05:34:45;;;;;;;5.60;3.40;;;;;;;23.41;71.84;100523.66;5072697;28;20045;-61
2023/09/17 05:37:13;;;;;;;6.05;3.70;;;;;;;23.20;72.93;100531.31;5055133;28;20423;-60
2023/09/17 05:39:40;;;;;;;6.88;3.60;;;;;;;23.14;73.01;100536.53;5036303;28;20041;-61
2023/09/17 05:42:07;;;;;;;8.70;3.58;;;;;;;23.29;73.03;100528.94;5053306;28;20538;-61
2023/09/17 05:44:35;;;;;;;7.55;3.95;;;;;;;23.20;73.11;100522.88;5051827;28;20064;-61
2023/09/17 05:47:03;;;;;;;7.80;3.60;;;;;;;23.19;73.81;100527.69;5052111;28;20423;-59
2023/09/17 05:49:31;;;;;;;5.05;3.47;;;;;;;23.30;73.42;100530.53;5057757;28;20659;-60
2023/09/17 05:51:59;;;;;;;6.63;3.40;;;;;;;23.45;72.17;100523.66;5058850;28;20432;-61
2023/09/17 05:54:27;;;;;;;5.32;3.13;;;;;;;23.33;73.11;100527.69;5068105;28;20052;-60
2023/09/17 05:56:54;;;;;;;6.43;3.42;;;;;;;23.43;72.60;100523.28;5081394;28;20045;-60
2023/09/17 05:59:22;;;;;;;8.63;3.58;;;;;;;23.26;73.50;100526.88;5065134;28;20056;-61
2023/09/17 06:01:50;;;;;;;6.28;3.50;;;;;;;23.34;72.81;100520.84;5055104;28;20059;-61
2023/09/17 06:04:17;;;;;;;9.10;3.25;;;;;;;23.43;72.58;100521.25;5072557;28;20040;-61
2023/09/17 06:06:44;;;;;;;6.80;3.47;;;;;;;23.17;73.72;100524.47;5088535;28;20064;-60
2023/09/17 06:09:12;;;;;;;5.57;3.42;;;;;;;23.42;73.30;100525.28;5056485;28;20484;-59
2023/09/17 06:11:39;;;;;;;6.70;3.63;;;;;;;23.35;73.56;100513.25;5052101;28;20053;-60
2023/09/17 06:14:07;;;;;;;6.97;3.65;;;;;;;23.33;73.17;100510.03;5051988;28;20045;-61
2023/09/17 06:16:34;;;;;;;7.45;3.65;;;;;;;23.29;73.51;100526.13;5048638;28;20056;-59
2023/09/17 06:19:22;;;;;;;7.15;3.55;;;;;;;23.28;73.28;100518.88;5043212;28;20057;-60
2023/09/17 06:21:49;;;;;;;8.00;3.72;;;;;;;23.32;73.75;100525.31;5067995;28;20507;-60
2023/09/17 06:24:16;;;;;;;8.60;3.88;;;;;;;23.42;73.38;100528.09;5065730;28;20053;-61
2023/09/17 06:26:44;;;;;;;5.90;3.47;;;;;;;23.56;72.78;100538.50;5051498;28;20041;-59
2023/09/17 06:29:11;;;;;;;6.63;3.53;;;;;;;23.56;72.17;100532.06;5056468;28;20040;-61
2023/09/17 06:31:40;;;;;;;5.72;3.33;;;;;;;23.57;72.44;100531.69;5054308;28;20053;-61
2023/09/17 06:34:09;;;;;;;5.82;3.40;;;;;;;23.56;72.40;100524.44;5065149;28;20112;-61
2023/09/17 06:36:37;;;;;;;6.73;3.50;;;;;;;23.27;73.56;100543.34;5051514;28;20051;-61
2023/09/17 06:39:06;;;;;;;5.45;3.55;;;;;;;23.25;73.65;100533.72;5067802;28;20132;-61
2023/09/17 06:41:33;;;;;;;5.93;3.63;;;;;;;23.46;72.94;100528.09;5057972;28;20049;-60
2023/09/17 06:44:05;;;;;;;6.15;3.20;;;;;;;23.46;73.12;100538.53;5063366;28;20060;-62
2023/09/17 06:46:33;;;;;;;10.07;3.72;;;;;;;23.44;72.78;100547.38;5043321;28;20057;-61
2023/09/17 06:49:00;;;;;;;5.28;3.33;;;;;;;23.48;72.49;100545.34;5047210;28;20049;-60
2023/09/17 06:51:28;;;;;;;7.20;3.60;;;;;;;23.43;72.33;100528.91;5039189;28;20049;-60
2023/09/17 06:53:55;;;;;;;6.97;3.17;;;;;;;23.54;72.11;100526.06;5036669;28;20729;-61
2023/09/17 06:56:25;;;;;;;7.28;3.20;;;;;;;23.69;71.47;100531.25;5049045;28;20048;-61
2023/09/17 06:58:53;;;;;;;5.32;3.15;;;;;;;23.66;71.34;100534.06;5049458;28;20051;-61
2023/09/17 07:01:20;;;;;;;6.53;3.33;;;;;;;23.61;71.09;100529.66;5057521;28;20043;-61
2023/09/17 07:03:48;;;;;;;6.88;3.05;;;;;;;23.61;71.68;100535.28;5059707;28;20044;-61
2023/09/17 07:06:16;;;;;;;6.10;3.22;;;;;;;23.61;71.38;100545.72;5067594;28;20053;-61
2023/09/17 07:08:43;;;;;;;5.40;3.30;;;;;;;23.55;71.98;100547.34;5041552;28;20053;-61
2023/09/17 07:11:11;;;;;;;10.60;3.63;;;;;;;23.09;73.40;100547.38;5035233;28;20052;-60
2023/09/17 07:13:39;;;;;;;7.68;3.50;;;;;;;23.25;73.63;100547.75;5044001;28;20045;-61
2023/09/17 07:16:07;;;;;;;6.68;3.72;;;;;;;23.34;72.48;100546.16;5049766;28;20419;-61
2023/09/17 07:18:34;;;;;;;6.65;2.97;;;;;;;23.46;72.40;100547.78;5051434;28;20061;-60
2023/09/17 07:21:03;;;;;;;6.63;3.53;;;;;;;23.51;72.19;100538.91;5048305;28;20049;-60
2023/09/17 07:23:32;;;;;;;5.78;3.38;;;;;;;23.28;73.02;100532.94;5032563;28;20040;-61
2023/09/17 07:26:00;;;;;;;9.57;3.90;;;;;;;23.10;72.85;100529.31;5049096;28;20040;-61
2023/09/17 07:28:28;;;;;;;7.60;4.28;;;;;;;23.11;73.98;100530.91;5044431;28;20049;-63
2023/09/17 07:30:56;;;;;;;7.32;3.67;;;;;;;23.25;73.62;100534.53;5060172;28;20057;-61
2023/09/17 07:33:24;;;;;;;6.70;3.45;;;;;;;23.39;72.81;100536.53;5081577;28;20550;-65
2023/09/17 07:35:52;;;;;;;5.78;3.13;;;;;;;23.43;71.86;100534.53;5044959;28;20054;-60
2023/09/17 07:38:20;;;;;;;5.93;3.42;;;;;;;23.20;72.94;100536.94;5048139;28;20053;-59
2023/09/17 07:40:48;;;;;;;6.43;3.35;;;;;;;23.22;72.43;100540.94;5053293;28;20041;-63
2023/09/17 07:43:16;;;;;;;7.72;3.70;;;;;;;23.40;73.00;100544.56;5046674;28;20075;-62
2023/09/17 07:45:43;;;;;;;6.82;3.45;;;;;;;23.21;72.06;100538.53;5043695;28;20056;-62
2023/09/17 07:48:11;;;;;;;8.82;3.75;;;;;;;23.43;72.55;100546.56;5047713;28;20049;-63
2023/09/17 07:50:40;;;;;;;7.07;3.35;;;;;;;23.53;71.58;100539.31;5045940;28;20064;-63
2023/09/17 07:53:07;;;;;;;7.10;3.57;;;;;;;23.03;73.64;100544.16;5046544;28;20158;-61
2023/09/17 07:55:34;;;;;;;9.52;3.97;;;;;;;23.37;73.26;100545.38;5044358;28;20451;-63
2023/09/17 07:58:03;;;;;;;7.13;3.65;;;;;;;23.31;72.89;100555.41;5047115;28;20430;-63
2023/09/17 08:00:30;;;;;;;11.00;3.70;;;;;;;23.35;73.50;100549.78;5049519;28;20622;-62
2023/09/17 08:02:58;;;;;;;6.63;3.97;;;;;;;23.03;73.36;100552.56;5046524;28;20040;-63
2023/09/17 08:05:26;;;;;;;10.02;4.32;;;;;;;23.56;74.97;100563.00;5059407;28;20044;-63
2023/09/17 08:07:53;;;;;;;7.80;4.03;;;;;;;23.32;73.97;100573.91;5048642;28;20048;-66
2023/09/17 08:10:21;;;;;;;6.20;3.70;;;;;;;23.52;73.28;100574.25;5059981;28;20120;-65
2023/09/17 08:12:49;;;;;;;9.40;4.05;;;;;;;23.71;72.78;100575.84;5039737;28;20045;-63
2023/09/17 08:15:16;;;;;;;9.73;3.67;;;;;;;23.90;70.91;100570.53;5028113;28;20049;-62
2023/09/17 08:17:44;;;;;;;6.88;3.67;;;;;;;23.82;71.54;100568.16;5060922;28;20054;-61
2023/09/17 08:20:12;;;;;;;14.10;4.45;;;;;;;23.87;71.70;100557.28;5046806;28;20794;-62
2023/09/17 08:22:39;;;;;;;10.93;6.32;;;;;;;24.04;71.26;100556.44;5044835;28;20060;-63
2023/09/17 08:25:09;;;;;;;9.60;3.85;;;;;;;24.20;70.97;100551.16;5046938;28;20088;-62
2023/09/17 08:27:36;;;;;;;9.73;6.80;;;;;;;24.23;71.59;100544.69;5049703;28;20045;-62
2023/09/17 08:30:07;;;;;;;26.35;10.50;;;;;;;24.37;70.49;100543.84;5046204;28;20055;-61
2023/09/17 08:32:34;;;;;;;11.38;6.45;;;;;;;24.45;70.42;100545.41;5046165;28;20045;-62
2023/09/17 08:35:03;;;;;;;8.32;4.68;;;;;;;24.38;70.01;100557.50;5048351;28;20056;-62
2023/09/17 08:37:30;;;;;;;9.80;4.63;;;;;;;24.18;70.24;100545.13;5053315;28;20057;-63
2023/09/17 08:39:58;;;;;;;7.10;4.15;;;;;;;24.38;69.54;100546.25;5041711;28;20130;-64
2023/09/17 08:42:27;;;;;;;8.00;3.88;;;;;;;24.42;69.18;100541.41;5025630;28;20057;-64
2023/09/17 08:44:58;;;;;;;7.03;3.92;;;;;;;24.40;68.84;100548.66;5045537;28;20060;-63
2023/09/17 08:47:26;;;;;;;6.40;3.35;;;;;;;24.71;68.21;100536.41;5045521;28;20053;-64
2023/09/17 08:49:53;;;;;;;6.82;3.70;;;;;;;24.63;67.95;100543.28;5037790;28;20049;-63
2023/09/17 08:52:22;;;;;;;8.88;3.80;;;;;;;23.99;69.34;100539.19;5046236;28;20059;-61
2023/09/17 08:54:50;;;;;;;6.03;3.67;;;;;;;24.18;69.63;100541.53;5044346;28;20036;-63
2023/09/17 08:57:21;;;;;;;8.27;3.50;;;;;;;23.94;69.76;100543.19;5045968;28;20057;-63
2023/09/17 09:00:09;;;;;;;5.10;3.45;;;;;;;23.63;70.75;100548.91;5058280;28;20049;-63
2023/09/17 09:02:51;;;;;;;7.70;3.63;;;;;;;23.59;71.51;100550.97;5043555;28;20041;-64
2023/09/17 09:05:23;;;;;;;9.25;3.78;;;;;;;23.86;71.95;100552.06;5035992;28;20041;-62
2023/09/17 09:07:51;;;;;;;6.68;3.20;;;;;;;24.41;69.41;100547.44;5046976;28;20064;-64
2023/09/17 09:10:20;;;;;;;8.05;3.55;;;;;;;24.61;69.20;100553.34;5051970;28;20056;-63
2023/09/17 09:12:49;;;;;;;8.52;3.72;;;;;;;24.65;68.63;100542.88;5042287;28;20053;-63
2023/09/17 09:15:17;;;;;;;9.82;5.18;;;;;;;24.97;75.03;100543.44;5048466;28;20037;-62
2023/09/17 09:17:45;;;;;;;7.55;3.83;;;;;;;25.05;73.61;100536.56;5049887;28;20099;-63
2023/09/17 09:20:14;;;;;;;6.85;3.20;;;;;;;25.04;71.70;100541.38;5050548;28;20435;-62
2023/09/17 09:22:43;;;;;;;6.45;3.17;;;;;;;24.94;71.08;100533.81;5032524;28;20052;-62
2023/09/17 09:25:15;;;;;;;7.13;3.72;;;;;;;25.21;69.43;100543.25;5047745;28;20059;-62
2023/09/17 09:27:43;;;;;;;9.40;3.60;;;;;;;25.34;68.16;100547.16;5042472;28;20119;-63
2023/09/17 09:30:12;;;;;;;7.65;3.53;;;;;;;25.37;67.51;100543.53;5048517;28;20064;-63
2023/09/17 09:32:40;;;;;;;9.15;3.65;;;;;;;25.36;67.36;100544.75;5044341;28;20053;-62
2023/09/17 09:35:08;;;;;;;8.75;3.95;;;;;;;25.50;66.03;100535.34;5045600;28;20045;-62
2023/09/17 09:37:36;;;;;;;8.40;4.00;;;;;;;25.58;66.01;100536.84;5048184;28;20053;-63
2023/09/17 09:40:05;;;;;;;7.15;3.35;;;;;;;25.56;65.51;100528.00;5051060;28;20053;-64
2023/09/17 09:42:32;;;;;;;9.02;3.65;;;;;;;25.42;65.00;100530.97;5042397;28;20061;-62
2023/09/17 09:45:00;;;;;;;8.70;3.50;;;;;;;25.44;65.89;100520.09;5034475;28;20562;-64
2023/09/17 09:47:30;;;;;;;8.18;3.50;;;;;;;25.23;65.74;100514.63;5050141;28;20052;-64
2023/09/17 09:50:00;;;;;;;13.27;3.80;;;;;;;25.14;65.65;100520.75;5048449;28;20044;-62
2023/09/17 09:52:29;;;;;;;5.70;3.15;;;;;;;25.04;65.91;100523.66;5041718;28;20803;-63
2023/09/17 09:54:57;;;;;;;8.73;3.90;;;;;;;25.15;66.15;100511.09;5042182;28;20052;-65
2023/09/17 09:57:25;;;;;;;6.15;3.33;;;;;;;25.19;65.75;100513.88;5028024;28;20111;-63
2023/09/17 09:59:53;;;;;;;7.30;3.70;;;;;;;25.28;65.58;100506.53;5044421;28;20056;-62
2023/09/17 10:02:21;;;;;;;7.43;3.50;;;;;;;25.25;65.42;100495.28;5054125;28;20060;-62
2023/09/17 10:04:50;;;;;;;8.05;3.83;;;;;;;25.11;65.49;100481.31;5039559;28;20045;-64
2023/09/17 10:07:18;;;;;;;10.38;4.82;;;;;;;24.84;65.84;100488.81;5038249;28;20056;-64
2023/09/17 10:09:46;;;;;;;13.70;6.60;;;;;;;23.96;69.99;100487.31;5046048;28;20053;-63
2023/09/17 10:12:14;;;;;;;10.02;5.88;;;;;;;24.47;68.27;100490.28;5045478;28;20049;-62
2023/09/17 10:14:41;;;;;;;8.70;4.75;;;;;;;24.66;67.42;100482.50;5041176;28;20053;-62
2023/09/17 10:17:13;;;;;;;8.32;4.10;;;;;;;24.91;66.76;100481.13;5028859;28;20049;-63
2023/09/17 10:19:41;;;;;;;10.15;5.68;;;;;;;24.91;65.82;100483.13;5046650;28;21479;-62
2023/09/17 10:22:10;;;;;;;6.90;4.10;;;;;;;24.23;67.24;100477.13;5045147;28;20835;-64
2023/09/17 10:24:38;;;;;;;7.88;4.80;;;;;;;24.51;68.03;100465.69;5030499;28;20049;-63
2023/09/17 10:27:06;;;;;;;8.98;4.32;;;;;;;24.69;66.26;100453.50;5043483;28;20498;-63
2023/09/17 10:29:35;;;;;;;6.88;4.10;;;;;;;24.86;65.89;100456.19;5025162;28;20640;-62
2023/09/17 10:32:03;;;;;;;7.97;4.13;;;;;;;24.85;65.69;100454.59;5043091;28;20056;-62
2023/09/17 10:34:35;;;;;;;8.43;4.05;;;;;;;24.97;65.28;100447.63;5036990;28;20610;-63
2023/09/17 10:37:04;;;;;;;6.72;4.30;;;;;;;25.11;64.37;100451.13;5042991;28;20064;-62
2023/09/17 10:39:33;;;;;;;9.65;4.00;;;;;;;25.23;64.35;100449.78;5038093;28;20053;-61
2023/09/17 10:42:02;;;;;;;9.40;4.70;;;;;;;25.45;63.43;100451.19;5040612;28;20060;-63
2023/09/17 10:44:30;;;;;;;12.57;4.38;;;;;;;25.44;63.77;100446.75;5034849;28;20111;-63
2023/09/17 10:47:02;;;;;;;8.70;3.95;;;;;;;25.55;63.00;100436.97;5053458;28;20044;-63
2023/09/17 10:49:31;;;;;;;11.45;4.60;;;;;;;25.28;63.69;100438.06;5038542;28;20079;-65
2023/09/17 10:51:59;;;;;;;8.52;4.20;;;;;;;25.24;64.04;100434.47;5028082;28;20064;-62
2023/09/17 10:54:27;;;;;;;7.18;4.25;;;;;;;25.25;64.52;100439.69;5045258;28;20049;-64
2023/09/17 10:56:55;;;;;;;9.40;4.53;;;;;;;25.20;64.69;100431.69;5045595;28;20040;-64
2023/09/17 10:59:23;;;;;;;10.43;4.80;;;;;;;24.93;65.24;100430.75;5049291;28;20064;-63
2023/09/17 11:01:51;;;;;;;13.50;4.80;;;;;;;24.95;65.42;100433.19;5041782;28;20049;-63
2023/09/17 11:04:22;;;;;;;8.65;4.78;;;;;;;25.21;64.74;100440.97;5051005;28;20553;-63
2023/09/17 11:06:49;;;;;;;9.73;4.75;;;;;;;25.52;64.00;100440.59;5032891;28;20547;-64
2023/09/17 11:09:18;;;;;;;7.97;5.07;;;;;;;25.45;64.11;100443.50;5050057;28;20053;-64
2023/09/17 11:11:45;;;;;;;8.38;4.63;;;;;;;25.15;64.23;100442.63;5037610;28;20060;-62
2023/09/17 11:14:14;;;;;;;9.02;4.90;;;;;;;25.04;64.52;100447.56;5062798;28;20049;-64
2023/09/17 11:16:42;;;;;;;9.30;5.10;;;;;;;25.21;64.81;100443.78;5039585;28;20038;-66
2023/09/17 11:19:11;;;;;;;8.60;4.53;;;;;;;25.44;63.71;100444.75;5044020;28;20059;-67
2023/09/17 11:21:44;;;;;;;8.75;5.13;;;;;;;25.66;63.60;100441.66;5035691;28;20052;-65
2023/09/17 11:24:12;;;;;;;9.15;5.18;;;;;;;25.51;63.83;100444.66;5041617;28;20057;-66
2023/09/17 11:26:45;;;;;;;10.18;5.10;;;;;;;25.47;63.51;100448.75;5045888;28;20048;-66
2023/09/17 11:29:14;;;;;;;9.18;5.00;;;;;;;25.58;63.89;100461.50;5034937;28;20042;-65
2023/09/17 11:31:51;;;;;;;6.30;4.57;;;;;;;25.78;63.07;100458.84;5023074;28;20059;-65